createdAt,value
2019-03-12T00:01:27.130Z,50.00
2019-03-12T00:04:18.930Z,49.10
2019-03-12T00:06:51.080Z,49.50
2019-03-12T00:09:23.804Z,49.60
2019-03-12T00:11:56.048Z,49.50
2019-03-12T00:14:28.349Z,49.40
2019-03-12T00:17:00.907Z,49.40
2019-03-12T00:19:32.865Z,49.40
2019-03-12T00:22:04.891Z,49.70
2019-03-12T00:24:37.333Z,49.30
2019-03-12T00:27:09.843Z,49.40
2019-03-12T00:29:42.478Z,49.40
2019-03-12T00:32:14.886Z,49.20
2019-03-12T00:34:47.061Z,49.60
2019-03-12T00:37:19.342Z,49.70
2019-03-12T00:39:51.907Z,49.40
2019-03-12T00:42:24.335Z,49.80
2019-03-12T00:44:56.953Z,49.10
2019-03-12T00:47:29.107Z,49.30
2019-03-12T00:50:01.598Z,49.40
2019-03-12T00:52:33.890Z,49.80
2019-03-12T00:55:07.415Z,49.30
2019-03-12T00:57:40.029Z,48.90
2019-03-12T01:00:16.491Z,49.50
2019-03-12T01:02:48.932Z,49.80
2019-03-12T01:05:21.401Z,49.60
2019-03-12T01:07:53.870Z,49.70
2019-03-12T01:10:26.101Z,49.50
2019-03-12T01:12:59.116Z,50.30
2019-03-12T01:15:31.871Z,50.10
2019-03-12T01:18:04.093Z,49.90
2019-03-12T01:20:36.385Z,50.00
2019-03-12T01:23:08.851Z,49.80
2019-03-12T01:25:40.880Z,50.10
2019-03-12T01:28:13.009Z,49.80
2019-03-12T01:30:45.336Z,50.00
2019-03-12T01:33:17.885Z,50.00
2019-03-12T01:35:49.875Z,50.10
2019-03-12T01:38:22.097Z,50.10
2019-03-12T01:40:54.928Z,50.10
2019-03-12T01:43:27.106Z,50.10
2019-03-12T01:46:00.090Z,50.10
2019-03-12T01:48:32.308Z,49.90
2019-03-12T01:51:04.906Z,50.80
2019-03-12T01:53:37.700Z,49.80
2019-03-12T01:56:09.881Z,49.90
2019-03-12T01:58:41.984Z,49.60
2019-03-12T02:01:14.448Z,49.90
2019-03-12T02:03:46.854Z,50.60
2019-03-12T02:06:18.902Z,50.10
2019-03-12T02:08:50.888Z,50.10
2019-03-12T02:11:22.860Z,50.10
2019-03-12T02:13:54.918Z,50.00
2019-03-12T02:16:27.364Z,50.10
2019-03-12T02:18:59.888Z,50.30
2019-03-12T02:21:31.914Z,50.10
2019-03-12T02:24:04.053Z,49.90
2019-03-12T02:26:36.339Z,50.10
2019-03-12T02:29:08.882Z,50.30
2019-03-12T02:31:40.931Z,50.20
2019-03-12T02:34:12.955Z,50.10
2019-03-12T02:36:45.353Z,50.10
2019-03-12T02:39:18.379Z,50.10
2019-03-12T02:41:51.135Z,50.30
2019-03-12T02:44:24.343Z,50.10
2019-03-12T02:46:56.861Z,50.10
2019-03-12T02:49:29.337Z,50.10
2019-03-12T02:52:02.000Z,50.10
2019-03-12T02:54:34.334Z,49.80
2019-03-12T02:57:06.909Z,49.90
2019-03-12T02:59:38.960Z,49.80
2019-03-12T03:02:10.860Z,50.00
2019-03-12T03:04:43.348Z,49.80
2019-03-12T03:07:37.523Z,49.90
2019-03-12T03:10:12.800Z,49.80
2019-03-12T03:12:44.290Z,49.90
2019-03-12T03:15:21.338Z,49.90
2019-03-12T03:17:54.083Z,49.90
2019-03-12T03:20:26.885Z,50.50
2019-03-12T03:23:00.359Z,49.90
2019-03-12T03:27:28.948Z,49.90
2019-03-12T03:29:59.755Z,49.40
2019-03-12T03:32:30.511Z,49.90
2019-03-12T03:35:02.776Z,49.70
2019-03-12T03:37:33.513Z,49.80
2019-03-12T03:40:05.822Z,49.90
2019-03-12T03:42:37.800Z,49.90
2019-03-12T03:45:09.760Z,50.10
2019-03-12T03:47:40.719Z,50.10
2019-03-12T03:50:11.545Z,49.80
2019-03-12T03:52:43.575Z,49.90
2019-03-12T03:55:17.617Z,49.80
2019-03-12T03:57:49.384Z,49.50
2019-03-12T04:00:22.847Z,50.00
2019-03-12T04:02:54.750Z,50.10
2019-03-12T04:05:25.504Z,50.10
2019-03-12T04:07:57.317Z,50.00
2019-03-12T04:10:28.887Z,50.00
2019-03-12T04:13:00.787Z,50.00
2019-03-12T04:15:32.725Z,49.90
2019-03-12T04:18:03.504Z,50.10
2019-03-12T04:20:35.416Z,50.10
2019-03-12T04:23:07.300Z,50.10
2019-03-12T04:25:38.834Z,50.10
2019-03-12T04:28:10.447Z,50.10
2019-03-12T04:30:42.354Z,49.90
2019-03-12T04:34:20.280Z,50.10
2019-03-12T04:36:53.450Z,49.90
2019-03-12T04:39:25.062Z,50.10
2019-03-12T04:41:56.781Z,50.10
2019-03-12T04:44:27.503Z,50.30
2019-03-12T04:46:59.310Z,50.10
2019-03-12T04:49:30.832Z,50.00
2019-03-12T04:52:02.506Z,50.30
2019-03-12T04:54:34.309Z,50.20
2019-03-12T04:57:06.035Z,50.20
2019-03-12T04:59:38.306Z,50.30
2019-03-12T05:02:10.032Z,50.20
2019-03-12T05:04:42.277Z,50.20
2019-03-12T05:07:13.809Z,50.50
2019-03-12T05:09:45.778Z,50.40
2019-03-12T05:12:16.516Z,50.30
2019-03-12T05:14:48.783Z,50.50
2019-03-12T05:17:22.630Z,50.50
2019-03-12T05:19:54.357Z,50.50
2019-03-12T05:22:27.761Z,50.10
2019-03-12T05:24:58.645Z,50.70
2019-03-12T05:27:30.370Z,50.60
2019-03-12T05:30:02.335Z,50.10
2019-03-12T05:32:34.310Z,50.50
2019-03-12T05:35:06.540Z,50.50
2019-03-12T05:37:38.304Z,50.50
2019-03-12T05:40:10.792Z,49.80
2019-03-12T05:42:41.483Z,50.40
2019-03-12T05:45:13.696Z,50.40
2019-03-12T05:47:45.397Z,50.40
2019-03-12T05:50:17.298Z,50.20
2019-03-12T05:52:49.601Z,50.50
2019-03-12T05:55:21.622Z,50.60
2019-03-12T05:57:53.621Z,50.50
2019-03-12T06:00:27.277Z,50.20
2019-03-12T06:02:59.754Z,50.30
2019-03-12T06:05:30.496Z,50.50
2019-03-12T06:08:02.310Z,50.40
2019-03-12T06:10:34.061Z,50.40
2019-03-12T06:13:05.747Z,50.50
2019-03-12T06:15:37.745Z,50.70
2019-03-12T06:18:08.480Z,50.50
2019-03-12T06:20:40.304Z,50.40
2019-03-12T06:23:15.059Z,50.40
2019-03-12T06:25:45.415Z,50.60
2019-03-12T06:28:17.630Z,50.00
2019-03-12T06:31:06.317Z,50.60
2019-03-12T06:33:59.544Z,50.30
2019-03-12T06:36:49.823Z,50.60
2019-03-12T06:39:42.985Z,50.50
2019-03-12T06:42:17.882Z,50.50
2019-03-12T06:45:08.315Z,50.10
2019-03-12T06:47:54.911Z,50.50
2019-03-12T06:51:00.599Z,50.50
2019-03-12T06:54:00.319Z,50.50
2019-03-12T06:56:51.062Z,50.10
2019-03-12T06:59:53.545Z,50.50
2019-03-12T07:02:33.301Z,50.50
2019-03-12T07:05:25.749Z,50.30
2019-03-12T07:08:06.942Z,50.10
2019-03-12T07:11:12.777Z,50.40
2019-03-12T07:13:50.007Z,50.30
2019-03-12T07:16:46.306Z,50.40
2019-03-12T07:19:28.862Z,50.40
2019-03-12T07:22:28.506Z,50.20
2019-03-12T07:25:18.814Z,50.20
2019-03-12T07:28:02.580Z,50.10
2019-03-12T07:30:56.446Z,50.20
2019-03-12T07:33:49.058Z,49.70
2019-03-12T07:36:42.301Z,50.00
2019-03-12T07:39:31.465Z,50.00
2019-03-12T07:42:21.826Z,49.90
2019-03-12T07:45:24.402Z,49.90
2019-03-12T07:48:23.792Z,49.70
2019-03-12T07:51:21.782Z,49.90
2019-03-12T07:54:04.054Z,49.80
2019-03-12T07:56:50.398Z,49.70
2019-03-12T07:59:50.298Z,49.60
2019-03-12T08:02:51.709Z,49.50
2019-03-12T08:05:35.625Z,49.70
2019-03-12T08:08:13.298Z,49.70
2019-03-12T08:10:50.303Z,49.20
2019-03-12T08:13:44.297Z,49.50
2019-03-12T08:16:47.035Z,49.40
2019-03-12T08:19:27.458Z,49.40
2019-03-12T08:22:16.762Z,49.30
2019-03-12T08:25:10.640Z,49.20
2019-03-12T08:28:13.465Z,49.20
2019-03-12T08:31:03.724Z,48.70
2019-03-12T08:33:51.007Z,49.00
2019-03-12T08:36:27.742Z,48.90
2019-03-12T08:39:07.670Z,49.00
2019-03-12T08:41:47.786Z,49.00
2019-03-12T08:44:37.500Z,48.60
2019-03-12T08:53:12.599Z,47.90
2019-03-12T08:56:21.306Z,48.60
2019-03-12T08:59:13.308Z,48.30
2019-03-12T09:02:06.413Z,48.60
2019-03-12T09:04:52.757Z,48.70
2019-03-12T09:07:54.911Z,48.50
2019-03-12T09:11:08.381Z,48.50
2019-03-12T09:13:45.740Z,48.50
2019-03-12T09:16:38.295Z,48.50
2019-03-12T09:19:17.780Z,48.40
2019-03-12T09:22:00.312Z,48.50
2019-03-12T09:24:52.302Z,48.40
2019-03-12T09:27:49.304Z,48.30
2019-03-12T09:30:48.994Z,48.20
2019-03-12T09:33:38.429Z,48.20
2019-03-12T09:36:22.308Z,48.20
2019-03-12T09:39:31.408Z,48.10
2019-03-12T09:42:24.594Z,48.00
2019-03-12T09:45:06.354Z,48.00
2019-03-12T09:47:57.035Z,47.50
2019-03-12T09:50:33.853Z,47.90
2019-03-12T09:53:27.384Z,48.00
2019-03-12T09:56:07.778Z,47.80
2019-03-12T09:58:48.797Z,47.90
2019-03-12T10:01:39.142Z,47.90
2019-03-12T10:04:23.387Z,47.90
2019-03-12T10:07:16.533Z,47.80
2019-03-12T10:09:56.369Z,48.00
2019-03-12T10:13:02.458Z,48.80
2019-03-12T10:16:02.306Z,48.10
2019-03-12T10:18:58.513Z,48.00
2019-03-12T10:21:51.679Z,47.90
2019-03-12T10:24:54.309Z,48.00
2019-03-12T10:27:38.923Z,47.50
2019-03-12T10:30:24.819Z,48.00
2019-03-12T10:33:12.062Z,47.80
2019-03-12T10:35:59.842Z,47.70
2019-03-12T10:40:17.067Z,47.90
2019-03-12T10:43:20.854Z,47.90
2019-03-12T10:46:16.330Z,47.80
2019-03-12T10:48:48.077Z,48.00
2019-03-12T10:51:19.773Z,47.90
2019-03-12T10:53:50.492Z,47.80
2019-03-12T10:56:22.317Z,47.60
2019-03-12T10:58:53.846Z,47.30
2019-03-12T11:01:25.516Z,46.70
2019-03-12T11:03:57.273Z,47.50
2019-03-12T11:06:28.901Z,46.90
2019-03-12T11:09:00.725Z,47.00
2019-03-12T11:11:31.632Z,46.80
2019-03-12T11:14:03.340Z,47.50
2019-03-12T11:16:35.314Z,46.60
2019-03-12T11:19:07.785Z,47.60
2019-03-12T11:21:38.644Z,47.50
2019-03-12T11:24:10.785Z,47.20
2019-03-12T11:26:41.735Z,46.80
2019-03-12T11:29:12.639Z,47.40
2019-03-12T11:31:44.335Z,47.50
2019-03-12T11:34:16.262Z,47.40
2019-03-12T11:36:47.863Z,47.90
2019-03-12T11:39:19.780Z,48.60
2019-03-12T11:41:53.230Z,47.90
2019-03-12T11:44:26.085Z,48.00
2019-03-12T11:46:58.859Z,48.10
2019-03-12T11:49:31.046Z,47.90
2019-03-12T11:52:03.939Z,47.90
2019-03-12T11:54:36.297Z,48.00
2019-03-12T11:57:08.884Z,48.00
2019-03-12T11:59:41.343Z,48.10
2019-03-12T12:02:13.895Z,48.00
2019-03-12T12:04:45.960Z,47.80
2019-03-12T12:07:18.118Z,48.10
2019-03-12T12:09:51.146Z,48.00
2019-03-12T12:12:23.999Z,47.50
2019-03-12T12:14:56.852Z,47.50
2019-03-12T12:17:29.104Z,47.60
2019-03-12T12:20:01.917Z,47.40
2019-03-12T12:22:34.390Z,47.60
2019-03-12T12:25:07.006Z,47.60
2019-03-12T12:27:39.618Z,47.50
2019-03-12T12:30:16.080Z,47.10
2019-03-12T12:32:48.700Z,46.70
2019-03-12T12:35:39.722Z,47.00
2019-03-12T12:38:10.464Z,47.10
2019-03-12T12:40:42.382Z,47.20
2019-03-12T12:43:14.027Z,47.30
2019-03-12T12:45:45.774Z,46.80
2019-03-12T12:48:16.493Z,47.30
2019-03-12T12:51:01.940Z,47.50
2019-03-12T12:53:22.027Z,48.00
2019-03-12T12:55:53.846Z,47.00
2019-03-12T12:58:25.749Z,47.20
2019-03-12T13:00:56.682Z,47.00
2019-03-12T13:03:27.444Z,46.60
2019-03-12T13:05:59.366Z,45.60
2019-03-12T13:08:31.087Z,47.20
2019-03-12T13:11:02.745Z,47.20
2019-03-12T13:13:33.457Z,47.20
2019-03-12T13:16:05.318Z,47.30
2019-03-12T13:18:37.819Z,47.00
2019-03-12T13:21:09.773Z,47.50
2019-03-12T13:23:40.661Z,47.40
2019-03-12T13:31:17.060Z,46.30
2019-03-12T13:33:48.791Z,46.70
2019-03-12T13:36:20.741Z,47.00
2019-03-12T13:38:51.569Z,47.10
2019-03-12T13:41:23.819Z,46.70
2019-03-12T13:43:55.754Z,47.10
2019-03-12T13:46:26.517Z,47.30
2019-03-12T13:48:58.316Z,47.30
2019-03-12T13:51:30.089Z,47.30
2019-03-12T13:54:01.819Z,47.50
2019-03-12T13:56:34.074Z,47.50
2019-03-12T13:59:05.776Z,47.60
2019-03-12T14:01:36.613Z,47.60
2019-03-12T14:04:10.842Z,47.40
2019-03-12T14:06:42.367Z,47.00
2019-03-12T14:09:14.110Z,47.20
2019-03-12T14:11:46.371Z,47.20
2019-03-12T14:14:18.321Z,47.30
2019-03-12T14:16:50.264Z,47.20
2019-03-12T14:19:22.319Z,47.00
2019-03-12T14:21:54.368Z,47.10
2019-03-12T14:24:50.814Z,47.20
2019-03-12T14:27:22.755Z,46.80
2019-03-12T14:31:19.376Z,47.20
2019-03-12T14:33:51.327Z,46.80
2019-03-12T14:36:23.312Z,47.00
2019-03-12T14:38:55.031Z,47.10
2019-03-12T14:41:26.775Z,47.00
2019-03-12T14:43:57.478Z,47.00
2019-03-12T14:46:29.319Z,47.00
2019-03-12T14:49:05.305Z,47.80
2019-03-12T14:52:37.588Z,47.00
2019-03-12T14:55:09.781Z,47.00
2019-03-12T14:57:40.712Z,46.70
2019-03-12T15:00:20.457Z,47.00
2019-03-12T15:02:52.302Z,47.00
2019-03-12T15:05:24.013Z,46.50
2019-03-12T15:07:55.774Z,46.20
2019-03-12T15:10:27.838Z,46.20
2019-03-12T15:12:59.834Z,45.70
2019-03-12T15:15:31.739Z,45.80
2019-03-12T15:18:03.744Z,45.30
2019-03-12T15:20:34.494Z,44.80
2019-03-12T15:23:06.347Z,44.80
2019-03-12T15:25:38.707Z,45.20
2019-03-12T15:28:10.458Z,45.50
2019-03-12T15:30:42.790Z,45.00
2019-03-12T15:33:13.477Z,45.60
2019-03-12T15:35:45.310Z,45.60
2019-03-12T15:38:17.057Z,45.30
2019-03-12T15:40:48.790Z,44.50
2019-03-12T15:43:20.482Z,44.50
2019-03-12T15:45:52.698Z,44.00
2019-03-12T15:48:23.482Z,42.80
2019-03-12T15:50:55.378Z,43.40
2019-03-12T15:53:28.037Z,43.40
2019-03-12T15:55:59.801Z,43.40
2019-03-12T15:58:32.054Z,43.00
2019-03-12T16:01:03.835Z,43.20
2019-03-12T16:03:35.737Z,43.30
2019-03-12T16:06:06.561Z,43.20
2019-03-12T16:08:38.686Z,43.40
2019-03-12T16:11:09.515Z,43.00
2019-03-12T16:13:41.366Z,43.40
2019-03-12T16:16:13.351Z,43.20
2019-03-12T16:18:45.545Z,43.40
2019-03-12T16:21:17.841Z,42.50
2019-03-12T16:24:22.414Z,43.30
2019-03-12T16:26:54.306Z,42.50
2019-03-12T16:29:26.060Z,42.90
2019-03-12T16:31:57.841Z,42.60
2019-03-12T16:34:29.390Z,43.00
2019-03-12T16:37:01.312Z,42.80
2019-03-12T16:39:36.299Z,42.80
2019-03-12T16:42:08.590Z,43.30
2019-03-12T16:44:40.373Z,42.50
2019-03-12T16:47:12.617Z,43.10
2019-03-12T16:49:44.613Z,43.40
2019-03-12T16:52:16.873Z,43.20
2019-03-12T16:54:51.378Z,43.20
2019-03-12T16:57:22.453Z,43.00
2019-03-12T17:02:11.018Z,42.70
2019-03-12T17:04:42.803Z,42.50
2019-03-12T17:07:14.794Z,43.70
2019-03-12T17:09:46.649Z,43.70
2019-03-12T17:12:17.463Z,44.00
2019-03-12T17:14:49.332Z,43.90
2019-03-12T17:17:21.630Z,44.20
2019-03-12T17:19:53.301Z,44.10
2019-03-12T17:22:25.387Z,44.10
2019-03-12T17:24:57.303Z,44.50
2019-03-12T17:27:29.054Z,44.50
2019-03-12T17:30:00.842Z,44.40
2019-03-12T17:32:32.778Z,44.30
2019-03-12T17:35:03.683Z,43.70
2019-03-12T17:37:34.664Z,43.60
2019-03-12T17:40:09.310Z,43.40
2019-03-12T17:42:41.352Z,43.40
2019-03-12T17:45:14.345Z,42.20
2019-03-12T17:47:46.834Z,42.20
2019-03-12T17:50:18.776Z,42.00
2019-03-12T17:52:50.783Z,42.70
2019-03-12T17:55:22.753Z,42.70
2019-03-12T17:57:54.758Z,41.50
2019-03-12T18:00:28.552Z,42.00
2019-03-12T18:03:06.793Z,42.20
2019-03-12T18:05:38.747Z,42.30
2019-03-12T18:08:09.737Z,42.00
2019-03-12T18:10:40.644Z,41.70
2019-03-12T18:13:13.038Z,41.70
2019-03-12T18:15:45.321Z,39.80
2019-03-12T18:18:17.315Z,41.30
2019-03-12T18:20:50.897Z,41.10
2019-03-12T18:23:23.297Z,40.60
2019-03-12T18:25:55.285Z,40.40
2019-03-12T18:28:27.306Z,41.50
2019-03-12T18:30:59.300Z,41.90
2019-03-12T18:33:31.300Z,41.70
2019-03-12T18:36:03.550Z,41.40
2019-03-12T18:38:35.379Z,41.00
2019-03-12T18:41:07.487Z,40.40
2019-03-12T18:43:39.322Z,39.90
2019-03-12T18:46:11.933Z,41.80
2019-03-12T18:48:44.819Z,42.00
2019-03-12T18:51:17.063Z,40.50
2019-03-12T18:53:48.805Z,43.40
2019-03-12T18:56:20.966Z,43.70
2019-03-12T18:58:52.783Z,43.20
2019-03-12T19:01:24.736Z,43.60
2019-03-12T19:03:55.680Z,43.70
2019-03-12T19:06:34.611Z,44.00
2019-03-12T19:09:15.754Z,43.20
2019-03-12T19:11:48.764Z,43.20
2019-03-12T19:14:21.423Z,42.90
2019-03-12T19:16:53.346Z,42.80
2019-03-12T19:19:25.365Z,41.20
2019-03-12T19:22:01.302Z,41.90
2019-03-12T19:24:33.052Z,42.10
2019-03-12T19:27:05.284Z,42.90
2019-03-12T19:29:37.265Z,42.90
2019-03-12T19:32:30.385Z,43.10
2019-03-12T19:35:02.325Z,42.90
2019-03-12T19:37:33.901Z,42.50
2019-03-12T19:40:05.785Z,43.40
2019-03-12T19:42:37.839Z,43.30
2019-03-12T19:45:10.827Z,43.50
2019-03-12T19:47:43.299Z,43.30
2019-03-12T19:50:17.386Z,43.40
2019-03-12T19:52:49.455Z,43.50
2019-03-12T19:55:26.250Z,43.20
2019-03-12T19:57:57.858Z,43.50
2019-03-12T20:00:29.757Z,42.80
2019-03-12T20:03:10.070Z,42.90
2019-03-12T20:05:34.331Z,43.60
2019-03-12T20:08:06.372Z,43.40
2019-03-12T20:11:49.301Z,43.40
2019-03-12T20:15:38.810Z,43.40
2019-03-12T20:19:07.304Z,43.60
2019-03-12T20:23:19.062Z,44.10
2019-03-12T20:27:21.269Z,44.30
2019-03-12T20:31:43.471Z,44.60
2019-03-12T20:35:35.792Z,44.90
2019-03-12T20:39:43.343Z,45.10
2019-03-12T20:43:39.056Z,45.40
2019-03-12T20:47:26.771Z,45.60
2019-03-12T20:51:33.751Z,46.20
2019-03-12T20:55:55.386Z,45.80
2019-03-12T21:00:08.299Z,45.90
2019-03-12T21:04:16.111Z,45.90
2019-03-12T21:08:14.595Z,46.00
2019-03-12T21:12:10.310Z,46.10
2019-03-12T21:16:32.541Z,45.70
2019-03-12T21:20:30.377Z,46.10
2019-03-12T21:24:14.777Z,46.20
2019-03-12T21:27:43.265Z,46.30
2019-03-12T21:30:12.303Z,46.30
2019-03-12T21:32:44.308Z,46.30
2019-03-12T21:35:16.749Z,46.30
2019-03-12T21:37:47.555Z,46.30
2019-03-12T21:40:19.395Z,46.30
2019-03-12T21:42:51.764Z,46.40
2019-03-12T21:45:22.962Z,46.20
2019-03-12T21:47:54.732Z,46.20
2019-03-12T21:50:25.460Z,46.20
2019-03-12T21:52:57.282Z,46.20
2019-03-12T21:55:28.845Z,46.10
2019-03-12T21:58:00.429Z,46.20
2019-03-12T22:00:32.350Z,46.20
2019-03-12T22:03:04.303Z,46.30
2019-03-12T22:05:36.168Z,46.90
2019-03-12T22:08:08.014Z,46.30
2019-03-12T22:10:40.062Z,46.10
2019-03-12T22:13:11.835Z,46.30
2019-03-12T22:15:43.566Z,46.40
2019-03-12T22:18:15.798Z,46.40
2019-03-12T22:20:51.240Z,46.70
2019-03-12T22:23:25.300Z,46.40
2019-03-12T22:25:57.304Z,46.30
2019-03-12T22:28:29.770Z,46.40
2019-03-12T22:31:00.639Z,46.40
2019-03-12T22:33:32.802Z,46.50
2019-03-12T22:36:04.626Z,46.10
2019-03-12T22:38:36.579Z,46.30
2019-03-12T22:41:08.802Z,46.10
2019-03-12T22:43:40.792Z,47.10
2019-03-12T22:46:12.812Z,46.40
2019-03-12T22:48:44.849Z,46.50
2019-03-12T22:51:16.633Z,46.50
2019-03-12T22:53:48.420Z,46.40
2019-03-12T22:56:20.307Z,46.00
2019-03-12T22:58:52.014Z,46.40
2019-03-12T23:01:23.947Z,46.40
2019-03-12T23:03:56.365Z,46.50
2019-03-12T23:06:28.980Z,46.40
2019-03-12T23:09:01.315Z,46.40
2019-03-12T23:11:33.301Z,46.50
2019-03-12T23:16:33.801Z,46.50
2019-03-12T23:19:06.322Z,46.50
2019-03-12T23:21:37.815Z,46.60
2019-03-12T23:24:09.861Z,46.60
2019-03-12T23:26:41.799Z,46.60
2019-03-12T23:29:13.438Z,46.60
2019-03-12T23:31:45.308Z,46.70
2019-03-12T23:34:16.905Z,46.60
2019-03-12T23:36:48.716Z,46.60
2019-03-12T23:39:19.607Z,46.70
2019-03-12T23:41:51.772Z,46.90
2019-03-12T23:44:22.541Z,46.30
2019-03-12T23:46:54.325Z,46.60
2019-03-12T23:49:26.329Z,46.60
2019-03-12T23:51:57.865Z,46.60
2019-03-12T23:54:29.910Z,46.70
2019-03-12T23:57:01.772Z,46.60
2019-03-12T23:59:32.450Z,46.80
